Time;durP1;ratioP1;P1;durP2;ratioP2;P2;SDS_P1;SDS_P2;PMS_P1;PMS_P2;Temp;Humidity;BMP_temperature;BMP_pressure;BME280_temperature;BME280_humidity;BME280_pressure;Samples;Min_cycle;Max_cycle;Signal;HPM_P1;HPM_P2
2021/09/14 00:01:55;;;;;;;26.65;14.20;;;;;;;13.42;100.00;101484.31;5086346;28;20052;-64
2021/09/14 00:04:21;;;;;;;26.13;14.70;;;;;;;13.38;100.00;101479.00;5086905;28;20028;-64
2021/09/14 00:06:46;;;;;;;25.95;14.25;;;;;;;13.31;100.00;101474.50;5084684;28;20502;-64
2021/09/14 00:09:14;;;;;;;27.23;14.77;;;;;;;13.28;100.00;101474.50;5087836;28;20103;-69
2021/09/14 00:11:39;;;;;;;27.65;15.73;;;;;;;13.24;100.00;101469.19;5084412;28;20036;-69
2021/09/14 00:14:06;;;;;;;28.13;15.25;;;;;;;13.22;100.00;101472.72;5087327;28;20024;-69
2021/09/14 00:16:31;;;;;;;27.00;14.60;;;;;;;13.19;100.00;101465.66;5084905;28;20031;-68
2021/09/14 00:18:56;;;;;;;25.83;14.30;;;;;;;13.12;100.00;101469.16;5086063;28;20032;-68
2021/09/14 00:21:22;;;;;;;26.80;15.60;;;;;;;13.08;100.00;101468.25;5086211;28;20020;-69
2021/09/14 00:23:47;;;;;;;25.83;14.55;;;;;;;13.02;100.00;101462.94;5084676;28;20024;-69
2021/09/14 00:26:12;;;;;;;27.65;15.57;;;;;;;13.04;100.00;101463.81;5087670;28;20024;-67
2021/09/14 00:28:38;;;;;;;26.58;15.45;;;;;;;13.03;100.00;101470.00;5083931;28;20111;-68
2021/09/14 00:31:03;;;;;;;27.65;15.27;;;;;;;13.05;100.00;101473.53;5068802;28;20047;-69
2021/09/14 00:33:30;;;;;;;27.02;14.90;;;;;;;13.03;100.00;101470.00;5085250;28;20031;-69
2021/09/14 00:35:55;;;;;;;27.92;15.15;;;;;;;12.92;100.00;101474.38;5085494;28;20032;-68
2021/09/14 00:38:20;;;;;;;26.75;13.55;;;;;;;12.91;100.00;101468.16;5085976;28;20027;-68
2021/09/14 00:40:46;;;;;;;25.33;13.82;;;;;;;12.90;100.00;101471.72;5084522;28;20021;-69
2021/09/14 00:43:19;;;;;;;24.10;13.52;;;;;;;12.84;100.00;101470.78;5087308;28;20031;-68
2021/09/14 00:45:44;;;;;;;27.42;15.43;;;;;;;12.83;100.00;101472.56;5083755;28;20027;-69
2021/09/14 00:48:09;;;;;;;27.90;15.95;;;;;;;12.82;100.00;101465.47;5087563;28;20024;-69
2021/09/14 00:50:34;;;;;;;26.95;15.52;;;;;;;12.84;100.00;101466.41;5065667;28;20071;-69
2021/09/14 00:53:00;;;;;;;27.15;15.48;;;;;;;12.83;100.00;101466.34;5085532;28;20080;-67
2021/09/14 00:55:26;;;;;;;26.45;14.57;;;;;;;12.77;100.00;101461.03;5085549;28;20044;-64
2021/09/14 00:57:52;;;;;;;26.60;15.10;;;;;;;12.77;100.00;101461.94;5084756;28;20047;-65
2021/09/14 01:00:17;;;;;;;28.30;16.50;;;;;;;12.74;100.00;101464.53;5086471;28;20103;-63
2021/09/14 01:02:42;;;;;;;26.17;14.02;;;;;;;12.63;100.00;101468.94;5064766;28;20032;-64
2021/09/14 01:05:08;;;;;;;25.25;14.63;;;;;;;12.64;100.00;101470.69;5086719;28;20429;-64
2021/09/14 01:07:33;;;;;;;27.33;15.85;;;;;;;12.67;100.00;101468.06;5084127;28;20055;-64
2021/09/14 01:10:00;;;;;;;27.42;16.40;;;;;;;12.69;100.00;101464.53;5085196;28;20024;-63
2021/09/14 01:12:26;;;;;;;27.33;15.75;;;;;;;12.59;100.00;101472.44;5085053;28;20028;-63
2021/09/14 01:14:55;;;;;;;26.00;14.50;;;;;;;12.60;100.00;101476.88;5084434;28;20151;-65
2021/09/14 01:17:21;;;;;;;28.55;16.88;;;;;;;12.63;100.00;101471.59;5085426;28;20068;-65
2021/09/14 01:19:47;;;;;;;27.75;16.65;;;;;;;12.63;100.00;101471.59;5083581;28;20028;-64
2021/09/14 01:22:14;;;;;;;29.30;15.85;;;;;;;12.59;100.00;101460.06;5086894;28;20509;-65
2021/09/14 01:24:39;;;;;;;29.13;17.23;;;;;;;12.58;100.00;101463.56;5082797;28;20115;-64
2021/09/14 01:27:04;;;;;;;26.90;15.43;;;;;;;12.50;100.00;101454.69;5085743;28;20084;-65
2021/09/14 01:32:14;;;;;;;29.38;18.60;;;;;;;12.48;100.00;101459.09;5083447;28;20124;-64
2021/09/14 01:34:39;;;;;;;29.75;18.15;;;;;;;12.44;100.00;101452.91;5086213;28;20522;-62
2021/09/14 01:37:06;;;;;;;30.13;18.60;;;;;;;12.44;100.00;101450.25;5082998;28;20116;-64
2021/09/14 01:39:32;;;;;;;30.85;19.30;;;;;;;12.44;100.00;101449.38;5085532;28;20426;-64
2021/09/14 01:41:57;;;;;;;30.02;18.55;;;;;;;12.40;100.00;101444.91;5084179;28;20024;-67
2021/09/14 01:44:22;;;;;;;29.08;18.60;;;;;;;12.36;100.00;101449.28;5083746;28;20051;-64
2021/09/14 01:46:48;;;;;;;29.65;18.45;;;;;;;12.36;100.00;101454.59;5085504;28;20056;-64
2021/09/14 01:49:14;;;;;;;30.65;20.15;;;;;;;12.33;100.00;101441.31;5082792;28;20029;-64
2021/09/14 01:51:40;;;;;;;31.63;20.73;;;;;;;12.31;100.00;101454.56;5085790;28;20027;-64
2021/09/14 01:54:06;;;;;;;31.75;20.02;;;;;;;12.29;100.00;101439.53;5082683;28;20121;-69
2021/09/14 01:56:31;;;;;;;31.20;19.77;;;;;;;12.27;100.00;101433.34;5084756;28;20471;-69
2021/09/14 01:58:57;;;;;;;31.83;21.08;;;;;;;12.27;100.00;101438.66;5083625;28;20055;-68
2021/09/14 02:01:27;;;;;;;32.42;21.50;;;;;;;12.25;100.00;101438.63;5083658;28;20024;-69
2021/09/14 02:41:35;;;;;;;33.97;24.05;;;;;;;11.93;100.00;101420.72;5023631;28;20040;-68
2021/09/14 02:56:15;;;;;;;34.97;23.75;;;;;;;11.91;100.00;101413.59;4970218;28;20434;-68
2021/09/14 03:00:36;;;;;;;36.00;25.38;;;;;;;11.80;100.00;101405.59;4999920;28;20118;-69
2021/09/14 03:03:04;;;;;;;35.80;25.33;;;;;;;11.77;100.00;101405.56;5002136;28;20121;-68
2021/09/14 03:05:30;;;;;;;35.35;24.58;;;;;;;11.74;100.00;101400.25;5000667;28;20449;-67
2021/09/14 03:07:56;;;;;;;36.33;26.40;;;;;;;11.74;100.00;101398.47;5000516;28;20030;-65
2021/09/14 03:10:21;;;;;;;34.92;24.77;;;;;;;11.70;100.00;101399.31;5001700;28;20512;-66
2021/09/14 03:12:46;;;;;;;33.35;24.30;;;;;;;11.68;100.00;101401.06;4999582;28;20060;-65
2021/09/14 03:15:12;;;;;;;34.42;24.27;;;;;;;11.66;100.00;101393.13;5002746;28;20080;-66
2021/09/14 03:17:37;;;;;;;37.33;25.77;;;;;;;11.66;100.00;101395.78;4999693;28;20038;-65
2021/09/14 03:20:04;;;;;;;37.30;27.25;;;;;;;11.62;100.00;101385.09;5001541;28;20022;-67
2021/09/14 03:22:30;;;;;;;38.10;26.90;;;;;;;11.60;100.00;101381.56;5042110;28;20036;-66
2021/09/14 03:24:56;;;;;;;35.83;25.42;;;;;;;11.60;100.00;101384.22;5082561;28;20036;-67
2021/09/14 03:27:21;;;;;;;35.30;24.65;;;;;;;11.54;100.00;101376.22;5083218;28;20482;-65
2021/09/14 03:29:47;;;;;;;37.72;27.17;;;;;;;11.55;100.00;101368.31;5081104;28;20021;-67
2021/09/14 03:32:12;;;;;;;36.47;25.67;;;;;;;11.46;100.00;101369.09;5084484;28;20051;-67
2021/09/14 03:34:37;;;;;;;36.22;25.80;;;;;;;11.44;100.00;101360.25;5081001;28;20111;-67
2021/09/14 03:37:03;;;;;;;35.80;26.50;;;;;;;11.42;100.00;101356.72;5083137;28;20024;-64
2021/09/14 03:39:29;;;;;;;35.28;25.83;;;;;;;11.44;100.00;101348.78;5082339;28;20024;-67
2021/09/14 03:41:54;;;;;;;37.28;26.73;;;;;;;11.43;100.00;101352.28;5082079;28;20021;-65
2021/09/14 03:44:19;;;;;;;39.25;28.70;;;;;;;11.42;100.00;101354.06;5083707;28;20028;-66
2021/09/14 03:46:44;;;;;;;33.47;24.65;;;;;;;11.38;100.00;101365.50;5063041;28;20029;-68
2021/09/14 03:49:10;;;;;;;36.28;26.52;;;;;;;11.42;100.00;101369.94;5080769;28;20025;-69
2021/09/14 03:51:35;;;;;;;34.15;25.63;;;;;;;11.37;100.00;101369.00;5083397;28;20073;-68
2021/09/14 03:54:00;;;;;;;36.53;27.35;;;;;;;11.39;100.00;101364.63;5081721;28;20101;-69
2021/09/14 03:56:26;;;;;;;37.17;27.55;;;;;;;11.39;100.00;101358.44;5082058;28;20444;-68
2021/09/14 03:58:51;;;;;;;36.67;25.75;;;;;;;11.33;100.00;101367.22;5083407;28;20024;-69
2021/09/14 04:01:16;;;;;;;37.80;26.88;;;;;;;11.32;100.00;101360.16;5081044;28;20060;-68
2021/09/14 04:03:44;;;;;;;36.13;25.50;;;;;;;11.28;100.00;101374.22;5084181;28;20024;-68
2021/09/14 04:08:55;;;;;;;34.67;25.60;;;;;;;11.28;100.00;101374.22;5082382;28;20514;-69
2021/09/14 04:11:21;;;;;;;33.70;24.33;;;;;;;11.24;100.00;101369.75;5083147;28;20028;-68
2021/09/14 04:13:51;;;;;;;32.33;23.05;;;;;;;11.19;100.00;101364.44;5080485;28;20058;-69
2021/09/14 04:16:17;;;;;;;34.80;25.50;;;;;;;11.19;100.00;101360.91;5083757;28;20493;-68
2021/09/14 04:18:42;;;;;;;35.70;25.83;;;;;;;11.22;100.00;101367.09;5080469;28;20430;-68
2021/09/14 04:21:08;;;;;;;39.95;30.42;;;;;;;11.21;100.00;101351.22;5083272;28;20032;-68
2021/09/14 04:23:33;;;;;;;39.92;29.35;;;;;;;11.19;100.00;101363.56;5081484;28;20024;-69
2021/09/14 04:25:58;;;;;;;39.78;28.48;;;;;;;11.18;100.00;101359.13;5082126;28;20061;-67
2021/09/14 04:28:24;;;;;;;38.50;28.40;;;;;;;11.16;100.00;101348.53;5082562;28;20024;-68
2021/09/14 04:30:49;;;;;;;38.55;28.67;;;;;;;11.16;100.00;101349.41;5081003;28;20082;-68
2021/09/14 04:33:14;;;;;;;42.72;31.60;;;;;;;11.16;100.00;101359.97;5083646;28;20067;-69
2021/09/14 04:35:40;;;;;;;42.25;30.02;;;;;;;11.16;100.00;101354.69;5080323;28;20052;-68
2021/09/14 04:38:05;;;;;;;42.58;30.92;;;;;;;11.15;100.00;101357.31;5085698;28;20046;-69
2021/09/14 04:40:31;;;;;;;40.63;29.85;;;;;;;11.09;100.00;101357.28;5085019;28;20040;-68
2021/09/14 04:42:59;;;;;;;40.75;30.88;;;;;;;11.08;100.00;101355.47;5085662;28;20029;-64
2021/09/14 04:45:24;;;;;;;39.38;29.33;;;;;;;11.06;100.00;101352.81;5085958;28;20028;-62
2021/09/14 04:47:49;;;;;;;38.97;28.95;;;;;;;11.04;100.00;101358.97;5084239;28;20052;-68
2021/09/14 04:50:15;;;;;;;41.03;30.95;;;;;;;11.03;100.00;101352.78;5087528;28;20467;-61
2021/09/14 04:52:41;;;;;;;41.92;31.83;;;;;;;11.05;100.00;101356.34;5083411;28;20052;-68
2021/09/14 04:55:07;;;;;;;35.92;26.80;;;;;;;10.96;100.00;101358.88;5086412;28;20031;-64
2021/09/14 04:57:32;;;;;;;35.28;25.95;;;;;;;10.97;100.00;101361.56;5084307;28;20038;-68
2021/09/14 04:59:58;;;;;;;40.05;29.48;;;;;;;11.01;100.00;101365.13;5085031;28;20055;-62
2021/09/14 05:02:23;;;;;;;41.35;30.42;;;;;;;11.02;100.00;101360.72;5085719;28;20145;-65
2021/09/14 05:04:48;;;;;;;40.38;30.20;;;;;;;10.99;100.00;101357.19;5083874;28;20024;-61
2021/09/14 05:07:14;;;;;;;41.67;30.45;;;;;;;11.00;100.00;101344.84;5086641;28;20020;-63
2021/09/14 05:09:39;;;;;;;40.92;30.30;;;;;;;11.04;100.00;101354.59;5083419;28;20024;-65
2021/09/14 05:12:05;;;;;;;42.90;33.65;;;;;;;11.02;100.00;101345.72;5085996;28;20475;-66
2021/09/14 05:14:30;;;;;;;42.28;31.27;;;;;;;10.99;100.00;101351.91;5084621;28;20391;-63
2021/09/14 05:16:55;;;;;;;44.00;32.53;;;;;;;10.99;100.00;101349.25;5084458;28;20020;-61
2021/09/14 05:19:32;;;;;;;44.75;32.72;;;;;;;10.97;100.00;101356.25;5085793;28;20032;-61
2021/09/14 05:22:00;;;;;;;42.80;32.47;;;;;;;10.98;100.00;101362.47;5084720;28;20020;-60
2021/09/14 05:24:28;;;;;;;41.53;31.02;;;;;;;11.00;100.00;101360.72;5085112;28;20433;-63
2021/09/14 05:26:54;;;;;;;42.33;31.27;;;;;;;11.03;100.00;101359.84;5084248;28;20032;-63
2021/09/14 05:29:19;;;;;;;43.38;31.00;;;;;;;11.07;100.00;101357.25;5085699;28;20047;-61
2021/09/14 05:31:45;;;;;;;43.83;32.13;;;;;;;11.12;100.00;101347.59;5082825;28;20467;-67
2021/09/14 05:34:11;;;;;;;45.13;33.10;;;;;;;11.19;100.00;101352.97;5086523;28;20024;-65
2021/09/14 05:36:37;;;;;;;43.83;33.70;;;;;;;11.23;100.00;101352.13;5083150;28;20033;-65
2021/09/14 05:39:02;;;;;;;41.90;30.73;;;;;;;11.25;100.00;101343.31;5084890;28;20133;-63
2021/09/14 05:41:28;;;;;;;41.83;31.83;;;;;;;11.31;100.00;101347.78;5083655;28;20490;-63
2021/09/14 05:43:56;;;;;;;44.63;32.72;;;;;;;11.35;100.00;101344.28;5070236;28;20053;-61
2021/09/14 05:46:21;;;;;;;42.05;31.95;;;;;;;11.39;100.00;101338.16;5087981;28;20036;-61
2021/09/14 05:48:47;;;;;;;46.35;33.70;;;;;;;11.42;100.00;101339.94;5086628;28;20073;-61
2021/09/14 05:51:12;;;;;;;45.50;33.90;;;;;;;11.47;100.00;101344.38;5085900;28;20164;-61
2021/09/14 05:53:38;;;;;;;42.17;32.17;;;;;;;11.48;100.00;101332.94;5069728;28;20069;-61
2021/09/14 05:56:04;;;;;;;45.65;32.90;;;;;;;11.54;100.00;101339.16;5091029;28;20032;-62
2021/09/14 05:58:31;;;;;;;44.08;33.20;;;;;;;11.52;100.00;101323.28;5074369;28;20084;-61
2021/09/14 06:00:57;;;;;;;43.58;33.15;;;;;;;11.53;100.00;101325.03;5086900;28;20382;-61
2021/09/14 06:03:22;;;;;;;43.90;32.88;;;;;;;11.56;100.00;101332.97;5087831;28;20028;-61
2021/09/14 06:05:47;;;;;;;45.58;33.83;;;;;;;11.56;100.00;101326.81;5090185;28;20032;-62
2021/09/14 06:08:13;;;;;;;43.90;33.95;;;;;;;11.57;100.00;101324.19;5092380;28;20053;-63
2021/09/14 06:10:38;;;;;;;45.75;34.45;;;;;;;11.60;100.00;101320.66;5085377;28;20028;-62
2021/09/14 06:13:04;;;;;;;44.92;33.53;;;;;;;11.67;100.00;101320.72;5086814;28;20024;-70
2021/09/14 06:15:29;;;;;;;46.20;33.85;;;;;;;11.72;100.00;101325.16;5090054;28;20031;-71
2021/09/14 06:17:54;;;;;;;44.25;34.33;;;;;;;11.76;100.00;101324.31;5091063;28;20479;-69
2021/09/14 06:20:20;;;;;;;44.60;34.53;;;;;;;11.80;100.00;101337.59;5089564;28;20494;-69
2021/09/14 06:22:45;;;;;;;44.95;34.03;;;;;;;11.84;100.00;101339.38;5091495;28;20034;-61
2021/09/14 06:25:11;;;;;;;42.50;33.35;;;;;;;11.89;100.00;101333.25;5091517;28;20020;-62
2021/09/14 06:27:36;;;;;;;42.75;33.08;;;;;;;11.93;100.00;101325.34;5090608;28;20119;-64
2021/09/14 06:30:02;;;;;;;43.67;34.33;;;;;;;11.95;100.00;101328.00;5086084;28;20046;-63
2021/09/14 06:32:27;;;;;;;43.95;33.15;;;;;;;11.99;100.00;101335.97;5088853;28;20032;-61
2021/09/14 06:34:53;;;;;;;44.05;33.78;;;;;;;12.02;100.00;101348.38;5068868;28;20024;-61
2021/09/14 06:37:18;;;;;;;47.53;34.80;;;;;;;12.06;100.00;101351.91;5090004;28;20031;-61
2021/09/14 06:39:44;;;;;;;43.22;32.95;;;;;;;12.16;100.00;101345.81;5091650;28;20530;-61
2021/09/14 06:42:09;;;;;;;42.63;33.28;;;;;;;12.22;100.00;101337.91;5069125;28;20048;-62
2021/09/14 06:44:35;;;;;;;41.38;32.40;;;;;;;12.34;100.00;101337.06;5089115;28;20433;-60
2021/09/14 06:47:01;;;;;;;42.55;32.40;;;;;;;12.44;100.00;101345.97;5087240;28;20119;-61
2021/09/14 06:49:29;;;;;;;45.50;33.30;;;;;;;12.47;100.00;101343.31;5088038;28;20663;-63
2021/09/14 06:51:54;;;;;;;42.80;33.00;;;;;;;12.54;100.00;101334.50;5088745;28;20024;-61
2021/09/14 06:54:20;;;;;;;41.78;33.38;;;;;;;12.63;100.00;101337.19;5084841;28;20051;-61
2021/09/14 06:56:45;;;;;;;43.08;33.17;;;;;;;12.72;100.00;101337.22;5065816;28;20076;-62
2021/09/14 06:59:10;;;;;;;42.45;32.55;;;;;;;12.81;100.00;101331.03;5083830;28;20069;-61
2021/09/14 07:01:36;;;;;;;44.35;32.88;;;;;;;12.90;100.00;101330.19;5089975;28;20016;-63
2021/09/14 07:04:01;;;;;;;41.90;32.58;;;;;;;12.96;100.00;101322.25;5086545;28;20071;-60
2021/09/14 07:06:26;;;;;;;42.22;32.25;;;;;;;13.00;100.00;101325.78;5089245;28;20020;-61
2021/09/14 07:08:52;;;;;;;41.85;32.95;;;;;;;13.05;100.00;101324.91;5082467;28;20467;-60
2021/09/14 07:11:17;;;;;;;42.13;33.40;;;;;;;13.10;100.00;101322.28;5087938;28;20055;-62
2021/09/14 07:13:43;;;;;;;41.90;32.30;;;;;;;13.14;100.00;101326.69;5085213;28;20063;-61
2021/09/14 07:16:08;;;;;;;43.40;32.00;;;;;;;13.17;100.00;101329.34;5088751;28;20441;-62
2021/09/14 07:18:38;;;;;;;42.13;33.33;;;;;;;13.23;100.00;101328.47;5086426;28;20104;-61
2021/09/14 07:21:04;;;;;;;41.95;33.17;;;;;;;13.30;100.00;101326.72;5086211;28;20017;-61
2021/09/14 07:23:29;;;;;;;42.15;33.90;;;;;;;13.37;100.00;101315.25;5089527;28;20401;-61
2021/09/14 07:25:54;;;;;;;42.60;32.85;;;;;;;13.45;100.00;101323.22;5088195;28;20029;-62
2021/09/14 07:28:20;;;;;;;41.38;31.90;;;;;;;13.55;100.00;101328.53;5087258;28;20095;-61
2021/09/14 07:30:45;;;;;;;43.80;34.15;;;;;;;13.68;100.00;101333.84;5086515;28;20603;-61
2021/09/14 07:33:12;;;;;;;40.20;33.00;;;;;;;13.78;100.00;101327.63;5086052;28;20488;-63
2021/09/14 07:35:37;;;;;;;41.63;32.42;;;;;;;13.91;100.00;101316.09;5087252;28;20910;-64
2021/09/14 07:38:02;;;;;;;42.50;32.47;;;;;;;14.00;100.00;101316.97;5089722;28;20447;-62
2021/09/14 07:40:28;;;;;;;40.55;32.35;;;;;;;14.14;100.00;101317.81;5085729;28;20031;-62
2021/09/14 07:42:55;;;;;;;38.42;30.00;;;;;;;14.33;100.00;101316.00;5088548;28;20020;-60
2021/09/14 07:45:21;;;;;;;39.85;31.27;;;;;;;14.60;100.00;101324.72;5087541;28;20120;-62
2021/09/14 07:47:46;;;;;;;37.90;30.08;;;;;;;14.81;100.00;101319.34;5085995;28;20028;-68
2021/09/14 07:50:12;;;;;;;38.30;29.63;;;;;;;15.02;100.00;101327.22;5070166;28;20051;-67
2021/09/14 07:52:37;;;;;;;39.40;31.10;;;;;;;15.27;100.00;101322.59;5086022;28;20041;-68
2021/09/14 07:55:03;;;;;;;37.47;28.35;;;;;;;15.49;100.00;101323.28;5087928;28;20103;-66
2021/09/14 07:57:29;;;;;;;37.58;28.45;;;;;;;15.71;100.00;101317.78;5088361;28;20089;-66
2021/09/14 07:59:56;;;;;;;37.17;28.05;;;;;;;15.86;98.78;101323.00;5085526;28;20422;-68
2021/09/14 08:02:22;;;;;;;36.10;27.95;;;;;;;16.09;98.96;101314.75;5089440;28;20079;-68
2021/09/14 08:04:47;;;;;;;34.53;26.73;;;;;;;16.47;94.70;101307.19;5085236;28;20471;-68
2021/09/14 08:07:15;;;;;;;34.45;26.52;;;;;;;16.75;91.50;101318.38;5088439;28;20055;-69
2021/09/14 08:09:40;;;;;;;33.72;25.55;;;;;;;16.82;89.49;101317.41;5086246;28;20012;-69
2021/09/14 08:12:06;;;;;;;34.08;25.67;;;;;;;16.92;91.95;101311.94;5083931;28;20387;-68
2021/09/14 08:14:31;;;;;;;34.78;25.27;;;;;;;16.96;88.03;101319.88;5086609;28;20024;-69
2021/09/14 08:16:57;;;;;;;33.95;24.15;;;;;;;16.92;87.45;101320.88;5083107;28;20040;-69
2021/09/14 08:19:22;;;;;;;32.38;24.05;;;;;;;16.95;86.36;101318.16;5087230;28;20028;-67
2021/09/14 08:21:48;;;;;;;34.03;24.23;;;;;;;17.10;85.92;101321.50;5084885;28;20515;-69
2021/09/14 08:24:13;;;;;;;32.25;23.90;;;;;;;17.28;84.61;101321.19;5086214;28;20467;-69
2021/09/14 08:26:40;;;;;;;33.03;24.58;;;;;;;17.47;84.52;101331.59;5085740;28;20028;-69
2021/09/14 08:29:06;;;;;;;32.85;24.05;;;;;;;17.55;83.27;101327.00;5085084;28;20017;-69
2021/09/14 08:31:31;;;;;;;32.75;23.83;;;;;;;17.61;84.40;101329.56;5086521;28;20535;-69
2021/09/14 08:33:58;;;;;;;32.25;23.58;;;;;;;17.78;83.51;101330.16;5084197;28;20021;-69
2021/09/14 08:36:24;;;;;;;33.17;24.17;;;;;;;17.90;81.62;101329.06;5087219;28;20020;-69
2021/09/14 08:38:53;;;;;;;32.15;23.70;;;;;;;18.09;81.55;101337.63;5083775;28;20036;-69
2021/09/14 08:41:18;;;;;;;32.20;23.58;;;;;;;18.26;79.49;101333.72;5086773;28;20020;-67
2021/09/14 08:43:47;;;;;;;32.05;23.33;;;;;;;18.45;80.95;101318.22;5084929;28;20028;-69
2021/09/14 08:46:16;;;;;;;33.47;23.52;;;;;;;18.65;78.85;101328.47;5086064;28;20048;-69
2021/09/14 08:48:43;;;;;;;31.92;23.27;;;;;;;18.82;78.78;101320.94;5084741;28;20047;-69
2021/09/14 08:51:09;;;;;;;32.35;22.63;;;;;;;19.01;77.41;101327.75;5085455;28;20391;-69
2021/09/14 08:53:35;;;;;;;31.48;22.42;;;;;;;19.24;76.09;101328.06;5085321;28;20048;-69
2021/09/14 08:56:03;;;;;;;31.20;22.30;;;;;;;19.38;75.86;101335.75;5084083;28;20127;-68
2021/09/14 08:58:28;;;;;;;32.20;22.85;;;;;;;19.42;75.56;101324.03;5086558;28;20117;-69
2021/09/14 09:00:54;;;;;;;31.48;22.75;;;;;;;19.52;74.99;101330.06;5083513;28;20471;-69
2021/09/14 09:03:23;;;;;;;87.00;30.05;;;;;;;19.41;75.00;101330.34;5086691;28;20495;-69
2021/09/14 09:05:49;;;;;;;34.53;22.52;;;;;;;19.47;75.44;101322.13;5083633;28;20100;-69
2021/09/14 09:08:23;;;;;;;37.67;23.20;;;;;;;19.77;74.65;101324.94;5085715;28;20029;-69
2021/09/14 09:11:08;;;;;;;48.20;25.50;;;;;;;20.36;72.79;101328.75;5083417;28;20020;-69
2021/09/14 09:13:47;;;;;;;33.60;22.58;;;;;;;20.61;71.08;101333.41;5083696;28;20187;-70
2021/09/14 09:16:20;;;;;;;60.38;26.23;;;;;;;20.45;70.96;101328.47;5084423;28;20062;-68
2021/09/14 09:18:54;;;;;;;40.03;24.25;;;;;;;20.09;72.01;101314.31;5085642;28;20029;-69
2021/09/14 09:21:30;;;;;;;32.63;21.90;;;;;;;19.80;72.32;101303.44;5082940;28;20020;-66
2021/09/14 09:24:08;;;;;;;36.90;22.45;;;;;;;19.74;73.29;101292.84;5082680;28;20054;-68
2021/09/14 09:26:36;;;;;;;35.35;22.48;;;;;;;20.83;69.57;101296.91;5081767;28;20020;-63
2021/09/14 09:29:05;;;;;;;31.80;22.17;;;;;;;21.88;65.17;101297.94;5086010;28;20024;-72
2021/09/14 09:31:32;;;;;;;34.25;20.92;;;;;;;22.74;61.09;101293.88;5089127;28;20060;-69
2021/09/14 09:34:05;;;;;;;30.30;20.92;;;;;;;22.85;60.75;101285.34;5091159;28;20028;-61
2021/09/14 09:36:35;;;;;;;29.88;20.70;;;;;;;23.02;58.41;101287.38;5091895;28;20020;-69
2021/09/14 09:39:05;;;;;;;30.38;21.25;;;;;;;23.18;59.13;101296.59;5088584;28;20024;-69
2021/09/14 09:41:34;;;;;;;31.55;21.13;;;;;;;23.33;58.97;101301.38;5091443;28;20387;-69
2021/09/14 09:44:12;;;;;;;29.65;20.40;;;;;;;22.89;60.02;101287.88;5083515;28;20020;-67
2021/09/14 09:46:37;;;;;;;29.73;20.92;;;;;;;22.31;61.70;101295.47;5087401;28;20025;-69
2021/09/14 09:49:08;;;;;;;30.98;20.85;;;;;;;22.01;62.50;101306.47;5083575;28;20038;-65
2021/09/14 09:51:36;;;;;;;30.60;21.60;;;;;;;22.55;61.69;101309.88;5085117;28;20028;-69
2021/09/14 09:54:02;;;;;;;31.58;20.98;;;;;;;23.80;58.57;101302.09;5088006;28;20039;-69
2021/09/14 09:56:29;;;;;;;30.77;20.13;;;;;;;24.88;54.31;101300.75;5088983;28;20036;-66
2021/09/14 09:58:55;;;;;;;30.65;19.42;;;;;;;25.64;51.04;101307.84;5067136;28;20038;-63
2021/09/14 10:01:23;;;;;;;29.50;19.40;;;;;;;26.05;49.82;101307.56;5087936;28;20024;-65
2021/09/14 10:04:10;;;;;;;28.90;19.27;;;;;;;26.38;50.40;101298.53;5083855;28;20024;-67
2021/09/14 10:06:40;;;;;;;28.92;18.88;;;;;;;26.19;49.50;101293.25;5086069;28;20367;-65
2021/09/14 10:09:06;;;;;;;29.88;19.33;;;;;;;26.09;49.72;101301.00;5083523;28;20024;-69
2021/09/14 10:11:33;;;;;;;29.65;19.30;;;;;;;26.58;48.98;101288.44;5064736;28;20376;-69
2021/09/14 10:14:13;;;;;;;29.25;18.88;;;;;;;27.59;49.37;101295.28;5090612;28;20020;-68
2021/09/14 10:16:45;;;;;;;30.55;18.83;;;;;;;28.44;44.56;101281.91;5081099;28;20479;-69
2021/09/14 10:19:14;;;;;;;28.17;18.33;;;;;;;28.41;44.62;101287.56;5086399;28;20020;-69
2021/09/14 10:22:00;;;;;;;28.10;17.30;;;;;;;29.06;42.84;101286.06;5081901;28;20119;-69
2021/09/14 10:24:26;;;;;;;27.65;16.85;;;;;;;30.03;41.09;101276.75;5084321;28;20080;-69
2021/09/14 10:27:04;;;;;;;27.95;15.80;;;;;;;30.45;41.10;101279.25;5082337;28;20032;-69
2021/09/14 10:29:30;;;;;;;25.77;15.05;;;;;;;31.06;37.94;101275.69;5087312;28;20028;-69
2021/09/14 10:32:10;;;;;;;25.35;13.48;;;;;;;31.26;39.30;101272.28;5083906;28;20361;-68
2021/09/14 10:34:42;;;;;;;24.02;13.43;;;;;;;31.58;36.60;101266.22;5087431;28;20035;-69
2021/09/14 10:37:08;;;;;;;;;;;;;;;32.03;37.60;101265.44;5084430;28;20103;-67
2021/09/14 10:39:43;;;;;;;24.52;12.70;;;;;;;31.00;37.13;101265.22;5083941;28;19950;-69
2021/09/14 10:42:20;;;;;;;25.05;13.27;;;;;;;30.03;39.39;101265.84;5066821;28;20029;-69
2021/09/14 10:44:47;;;;;;;26.20;13.48;;;;;;;30.15;38.54;101253.19;5084846;28;20509;-69
2021/09/14 10:47:18;;;;;;;26.08;13.40;;;;;;;30.61;38.83;101246.28;5086404;28;20110;-69
2021/09/14 10:49:48;;;;;;;24.50;12.63;;;;;;;31.63;36.41;101261.28;5086927;28;20055;-68
2021/09/14 10:52:16;;;;;;;24.17;12.70;;;;;;;32.57;34.31;101249.31;5084098;28;20501;-69
2021/09/14 10:54:47;;;;;;;23.73;11.95;;;;;;;32.74;33.87;101243.34;5080317;28;20103;-69
2021/09/14 10:57:13;;;;;;;25.23;12.55;;;;;;;32.49;34.21;101247.22;5084726;28;20027;-69
2021/09/14 10:59:47;;;;;;;24.02;12.55;;;;;;;31.88;35.15;101244.81;5082477;28;20106;-69
2021/09/14 11:02:13;;;;;;;23.02;12.60;;;;;;;31.01;36.30;101246.00;5082552;28;20544;-62
2021/09/14 11:04:41;;;;;;;23.25;12.48;;;;;;;30.27;37.95;101239.66;5084258;28;20028;-62
2021/09/14 11:07:11;;;;;;;23.77;11.95;;;;;;;29.94;39.00;101233.81;5087732;28;20024;-64
2021/09/14 11:09:36;;;;;;;23.95;12.18;;;;;;;29.61;39.41;101224.28;5088717;28;20031;-62
2021/09/14 11:12:02;;;;;;;22.95;11.75;;;;;;;29.52;39.24;101231.25;5086676;28;20032;-62
2021/09/14 11:14:36;;;;;;;23.92;12.15;;;;;;;30.17;39.71;101229.41;5090004;28;20024;-60
2021/09/14 11:17:02;;;;;;;23.35;11.95;;;;;;;31.43;37.38;101218.25;5086780;28;20123;-65
2021/09/14 11:19:27;;;;;;;24.48;12.15;;;;;;;32.21;34.76;101215.78;5088774;28;20122;-61
2021/09/14 11:21:53;;;;;;;24.38;13.07;;;;;;;33.11;33.23;101217.44;5086585;28;20028;-61
2021/09/14 11:24:21;;;;;;;23.40;12.90;;;;;;;33.41;33.02;101213.97;5087433;28;20032;-65
2021/09/14 11:26:48;;;;;;;23.33;12.77;;;;;;;33.63;32.11;101225.78;5088437;28;20039;-63
2021/09/14 11:29:13;;;;;;;24.17;12.55;;;;;;;33.25;32.32;101208.09;5086387;28;20039;-63
2021/09/14 11:31:39;;;;;;;23.50;12.23;;;;;;;33.92;32.60;101204.06;5086947;28;20487;-63
2021/09/14 11:34:05;;;;;;;25.17;12.23;;;;;;;34.94;31.16;101216.78;5088705;28;20040;-61
2021/09/14 11:36:31;;;;;;;23.20;12.35;;;;;;;34.85;30.15;101204.78;5086360;28;20028;-59
2021/09/14 11:38:59;;;;;;;23.55;12.13;;;;;;;34.52;30.46;101197.78;5085267;28;20031;-60
2021/09/14 11:41:32;;;;;;;22.60;11.55;;;;;;;34.46;31.23;101196.47;5085109;28;20024;-70
2021/09/14 11:43:57;;;;;;;22.63;12.00;;;;;;;33.81;31.48;101209.63;5079194;28;20025;-67
2021/09/14 11:46:23;;;;;;;23.48;12.50;;;;;;;33.89;31.22;101209.81;5068096;28;20359;-67
2021/09/14 11:49:03;;;;;;;22.65;11.85;;;;;;;34.49;31.71;101204.41;5087126;28;20024;-68
2021/09/14 11:51:40;;;;;;;23.38;11.63;;;;;;;34.58;32.16;101202.69;5091888;28;20027;-68
2021/09/14 11:54:10;;;;;;;23.02;12.40;;;;;;;34.67;31.17;101203.72;5091585;28;20085;-69
2021/09/14 11:56:35;;;;;;;22.63;12.05;;;;;;;34.43;31.27;101193.13;5090011;28;20039;-68
2021/09/14 11:59:01;;;;;;;22.25;11.50;;;;;;;33.98;32.48;101200.75;5089040;28;20016;-68
2021/09/14 12:01:31;;;;;;;24.00;12.50;;;;;;;33.77;32.03;101191.69;5090174;28;20028;-69